Observations for BENSON RAF, United Kingdom (EGUB)

EGUB 211650Z AUTO 19011KT 6000 // FEW007/// BKN014/// 06/06 Q1006   
EGUB 211550Z AUTO 16011KT 4000 // BKN006/// BKN016/// 04/03 Q1007   
EGUB 211450Z AUTO 16007KT 9999 // BKN005/// SCT012/// 03/02 Q1008   
EGUB 211350Z AUTO 16012KT 9999 // BKN017/// 02/02 Q1009 
EGUB 211250Z AUTO 18010KT 8000 // FEW006/// BKN018/// 02/01 Q1010   
EGUB 211150Z AUTO 12013KT 6000 // BKN022/// 02/01 Q1012 
EGUB 211050Z AUTO 13011KT 7000 // FEW006/// SCT022/// BKN034/// 01/01 Q1013 
EGUB 210950Z AUTO 14009KT 5000 // FEW006/// BKN021/// BKN045/// 01/00 Q1013 
EGUB 210850Z AUTO 13006KT 5000 // FEW015/// BKN023/// BKN034/// 01/01 Q1014 
EGUB 210750Z AUTO 14004KT 4100 // SCT016/// SCT020/// BKN060/// 01/01 Q1015 
EGUB 210650Z AUTO 15004KT 6000 // OVC060/// 01/01 Q1014 
EGUB 210550Z AUTO 20004KT 4600 // OVC060/// 01/01 Q1014 
EGUB 210450Z AUTO 18001KT 3700 // FEW005/// BKN070/// 00/00 Q1014   
EGUB 210350Z AUTO 05002KT 4000 // BKN090/// BKN140/// 01/00 Q1013   
EGUB 210250Z AUTO 34002KT 6000 // FEW011/// OVC110/// 01/00 Q1014   
EGUB 210150Z AUTO 28001KT 8000 // BKN009/// BKN140/// 02/01 Q1013   
EGUB 210050Z AUTO 30003KT 9000 // OVC007/// 02/01 Q1013 
EGUB 202350Z AUTO 30004KT 9999 // OVC005/// 02/01 Q1012 
EGUB 202250Z AUTO 33003KT 9000 // OVC005/// 02/01 Q1010 
EGUB 202150Z AUTO 33005KT 9999 // BKN006/// BKN023/// 02/01 Q1009   
EGUB 202050Z AUTO 35005KT 9999 // BKN006/// BKN022/// 03/02 Q1008   
EGUB 201950Z AUTO 35006KT 8000 // OVC005/// 03/02 Q1006 
EGUB 201850Z AUTO 01006KT 9000 // OVC006/// 03/02 Q1004 
EGUB 201750Z AUTO 02008KT 9999 // BKN005/// BKN019/// 03/02 Q1002